createdAt,value
2023-02-27T00:00:19.296Z,3.46
2023-02-27T00:03:07.937Z,3.46
2023-02-27T00:05:36.624Z,3.46
2023-02-27T00:08:05.266Z,3.48
2023-02-27T00:10:34.098Z,3.48
2023-02-27T00:13:03.193Z,3.49
2023-02-27T00:15:32.489Z,3.50
2023-02-27T00:18:01.079Z,3.51
2023-02-27T00:20:30.481Z,3.51
2023-02-27T00:22:58.870Z,3.52
2023-02-27T00:25:27.444Z,3.54
2023-02-27T00:27:57.358Z,3.54
2023-02-27T00:30:26.809Z,3.53
2023-02-27T00:32:55.757Z,3.54
2023-02-27T00:35:24.848Z,3.54
2023-02-27T00:37:53.842Z,3.55
2023-02-27T00:40:25.707Z,3.55
2023-02-27T00:42:54.272Z,3.56
2023-02-27T00:45:23.080Z,3.56
2023-02-27T00:47:51.944Z,3.55
2023-02-27T00:50:20.660Z,3.56
2023-02-27T00:52:49.135Z,3.58
2023-02-27T00:55:17.920Z,3.60
2023-02-27T00:57:46.731Z,3.62
2023-02-27T01:00:15.647Z,3.63
2023-02-27T01:02:44.824Z,3.64
2023-02-27T01:05:14.821Z,3.65
2023-02-27T01:07:43.304Z,3.66
2023-02-27T01:10:13.604Z,3.65
2023-02-27T01:12:42.827Z,3.65
2023-02-27T01:15:12.645Z,3.65
2023-02-27T01:17:41.431Z,3.64
2023-02-27T01:20:13.007Z,3.63
2023-02-27T01:22:42.197Z,3.63
2023-02-27T01:25:11.489Z,3.62
2023-02-27T01:27:41.402Z,3.61
2023-02-27T01:30:11.984Z,3.61
2023-02-27T01:32:40.976Z,3.59
2023-02-27T01:35:10.126Z,3.59
2023-02-27T01:37:38.562Z,3.60
2023-02-27T01:40:08.698Z,3.59
2023-02-27T01:42:37.922Z,3.58
2023-02-27T01:45:13.265Z,3.58
2023-02-27T01:47:47.578Z,3.57
2023-02-27T01:50:18.529Z,3.58
2023-02-27T01:52:54.746Z,3.59
2023-02-27T01:55:26.373Z,3.60
2023-02-27T01:57:56.323Z,3.60
2023-02-27T02:00:25.859Z,3.60
2023-02-27T02:03:20.820Z,3.61
2023-02-27T02:05:52.274Z,3.61
2023-02-27T02:08:23.661Z,3.62
2023-02-27T02:10:54.847Z,3.62
2023-02-27T02:13:23.609Z,3.62
2023-02-27T02:16:15.530Z,3.62
2023-02-27T02:18:59.468Z,3.62
2023-02-27T02:21:47.171Z,3.62
2023-02-27T02:24:40.670Z,3.64
2023-02-27T02:27:19.507Z,3.63
2023-02-27T02:30:09.787Z,3.64
2023-02-27T02:33:02.024Z,3.65
2023-02-27T02:35:47.617Z,3.64
2023-02-27T02:38:50.280Z,3.65
2023-02-27T02:41:26.652Z,3.66
2023-02-27T02:44:10.090Z,3.66
2023-02-27T02:47:00.897Z,3.66
2023-02-27T02:49:41.269Z,3.68
2023-02-27T02:52:52.032Z,3.69
2023-02-27T02:55:33.425Z,3.68
2023-02-27T02:58:27.904Z,3.68
2023-02-27T03:01:03.783Z,3.68
2023-02-27T03:03:37.363Z,3.68
2023-02-27T03:06:28.244Z,3.69
2023-02-27T03:09:02.588Z,3.67
2023-02-27T03:11:36.717Z,3.67
2023-02-27T03:14:16.531Z,3.66
2023-02-27T03:16:50.729Z,3.65
2023-02-27T03:19:26.605Z,3.64
2023-02-27T03:22:11.927Z,3.62
2023-02-27T03:24:47.425Z,3.58
2023-02-27T03:27:19.177Z,3.57
2023-02-27T03:30:10.544Z,3.56
2023-02-27T03:32:48.721Z,3.55
2023-02-27T03:35:18.441Z,3.55
2023-02-27T03:37:59.705Z,3.54
2023-02-27T03:40:38.299Z,3.54
2023-02-27T03:43:39.142Z,3.54
2023-02-27T03:46:21.408Z,3.53
2023-02-27T03:48:50.477Z,3.52
2023-02-27T03:51:22.826Z,3.52
2023-02-27T03:54:05.139Z,3.52
2023-02-27T03:57:00.977Z,3.53
2023-02-27T03:59:31.380Z,3.53
2023-02-27T04:02:02.585Z,3.52
2023-02-27T04:04:33.078Z,3.52
2023-02-27T04:08:16.613Z,3.52
2023-02-27T04:11:04.248Z,3.51
2023-02-27T04:13:38.971Z,3.51
2023-02-27T04:16:29.234Z,3.51
2023-02-27T04:19:07.066Z,3.51
2023-02-27T04:22:01.045Z,3.53
2023-02-27T04:24:44.990Z,3.52
2023-02-27T04:27:32.792Z,3.52
2023-02-27T04:30:46.702Z,3.53
2023-02-27T04:33:34.274Z,3.52
2023-02-27T04:36:13.020Z,3.52
2023-02-27T04:38:52.057Z,3.51
2023-02-27T04:41:27.618Z,3.50
2023-02-27T04:43:57.884Z,3.49
2023-02-27T04:46:29.445Z,3.47
2023-02-27T04:49:36.260Z,3.45
2023-02-27T04:52:14.263Z,3.48
2023-02-27T04:54:58.723Z,3.47
2023-02-27T04:57:48.313Z,3.46
2023-02-27T05:00:21.455Z,3.48
2023-02-27T05:02:56.293Z,3.50
2023-02-27T05:05:29.074Z,3.52
2023-02-27T05:08:04.210Z,3.54
2023-02-27T05:10:51.779Z,3.58
2023-02-27T05:13:29.070Z,3.60
2023-02-27T05:16:05.392Z,3.62
2023-02-27T05:18:34.416Z,3.65
2023-02-27T05:21:25.113Z,3.67
2023-02-27T05:24:20.225Z,3.70
2023-02-27T05:27:19.284Z,3.73
2023-02-27T05:29:50.775Z,3.76
2023-02-27T05:32:23.249Z,3.79
2023-02-27T05:35:01.565Z,3.83
2023-02-27T05:37:39.199Z,3.88
2023-02-27T05:40:11.285Z,3.91
2023-02-27T05:42:45.949Z,3.95
2023-02-27T05:45:19.839Z,3.99
2023-02-27T05:48:27.223Z,4.01
2023-02-27T05:50:58.085Z,4.04
2023-02-27T05:53:32.396Z,4.04
2023-02-27T05:56:05.802Z,4.04
2023-02-27T05:59:01.320Z,4.04
2023-02-27T06:01:30.242Z,4.04
2023-02-27T06:03:59.129Z,4.07
2023-02-27T06:06:30.656Z,4.13
2023-02-27T06:08:59.445Z,4.17
2023-02-27T06:11:28.133Z,4.20
2023-02-27T06:13:56.719Z,4.20
2023-02-27T06:16:25.823Z,4.20
2023-02-27T06:18:55.650Z,4.20
2023-02-27T06:21:24.650Z,4.18
2023-02-27T06:23:53.267Z,4.16
2023-02-27T06:26:21.689Z,4.11
2023-02-27T06:28:50.857Z,4.08
2023-02-27T06:31:19.468Z,4.02
2023-02-27T06:33:48.056Z,3.96
2023-02-27T06:36:16.940Z,3.91
2023-02-27T06:38:45.737Z,3.85
2023-02-27T06:41:14.206Z,3.82
2023-02-27T06:43:42.998Z,3.78
2023-02-27T06:46:11.915Z,3.76
2023-02-27T06:48:40.573Z,3.73
2023-02-27T06:51:09.361Z,3.73
2023-02-27T06:53:38.372Z,3.73
2023-02-27T06:56:07.354Z,3.72
2023-02-27T06:58:35.937Z,3.75
2023-02-27T07:01:04.833Z,3.78
2023-02-27T07:03:33.634Z,3.79
2023-02-27T07:06:03.325Z,3.80
2023-02-27T07:08:32.318Z,3.82
2023-02-27T07:11:01.547Z,3.84
2023-02-27T07:13:30.509Z,3.86
2023-02-27T07:15:59.190Z,3.91
2023-02-27T07:18:27.883Z,3.94
2023-02-27T07:20:56.776Z,3.95
2023-02-27T07:23:25.459Z,3.97
2023-02-27T07:25:54.051Z,3.99
2023-02-27T07:28:23.094Z,4.00
2023-02-27T07:30:54.907Z,4.04
2023-02-27T07:33:24.199Z,4.08
2023-02-27T07:35:53.950Z,4.11
2023-02-27T07:38:24.343Z,4.17
2023-02-27T07:40:56.201Z,4.24
2023-02-27T07:43:25.434Z,4.29
2023-02-27T07:45:54.053Z,4.35
2023-02-27T07:48:22.614Z,4.40
2023-02-27T07:50:51.684Z,4.45
2023-02-27T07:53:20.353Z,4.48
2023-02-27T07:55:49.045Z,4.52
2023-02-27T07:58:18.137Z,4.57
2023-02-27T08:00:46.824Z,4.63
2023-02-27T08:03:15.715Z,4.70
2023-02-27T08:05:44.464Z,4.75
2023-02-27T08:08:12.985Z,4.81
2023-02-27T08:10:41.980Z,4.86
2023-02-27T08:13:11.083Z,4.92
2023-02-27T08:15:39.560Z,5.01
2023-02-27T08:18:09.251Z,5.10
2023-02-27T08:20:38.177Z,5.19
2023-02-27T08:23:07.265Z,5.27
2023-02-27T08:25:36.367Z,5.32
2023-02-27T08:28:05.128Z,5.34
2023-02-27T08:30:33.832Z,5.32
2023-02-27T08:33:04.053Z,5.32
2023-02-27T08:35:32.910Z,5.33
2023-02-27T08:38:01.830Z,5.32
2023-02-27T08:40:30.517Z,5.32
2023-02-27T08:42:59.136Z,5.34
2023-02-27T08:45:28.010Z,5.35
2023-02-27T08:47:56.679Z,5.38
2023-02-27T08:50:25.469Z,5.41
2023-02-27T08:52:54.362Z,5.45
2023-02-27T08:55:23.354Z,5.49
2023-02-27T08:57:51.943Z,5.55
2023-02-27T09:00:20.976Z,5.59
2023-02-27T09:02:49.829Z,5.61
2023-02-27T09:05:18.716Z,5.65
2023-02-27T09:07:47.199Z,5.71
2023-02-27T09:10:16.172Z,5.74
2023-02-27T09:12:45.188Z,5.77
2023-02-27T09:15:13.672Z,5.75
2023-02-27T09:17:42.587Z,5.72
2023-02-27T09:20:12.586Z,5.72
2023-02-27T09:22:41.167Z,5.75
2023-02-27T09:25:10.540Z,5.77
2023-02-27T09:27:39.467Z,5.79
2023-02-27T09:30:09.885Z,5.80
2023-02-27T09:32:38.633Z,5.83
2023-02-27T09:35:09.558Z,5.85
2023-02-27T09:37:38.521Z,5.88
2023-02-27T09:40:08.330Z,5.89
2023-02-27T09:42:45.679Z,5.93
2023-02-27T09:45:24.642Z,5.98
2023-02-27T09:47:58.752Z,6.02
2023-02-27T09:50:39.699Z,6.05
2023-02-27T09:53:14.441Z,6.04
2023-02-27T09:55:45.967Z,6.04
2023-02-27T09:58:23.811Z,6.11
2023-02-27T10:01:09.707Z,6.26
2023-02-27T10:03:47.604Z,6.39
2023-02-27T10:06:27.444Z,6.47
2023-02-27T10:09:12.520Z,6.55
2023-02-27T10:12:18.995Z,6.64
2023-02-27T10:15:13.185Z,6.60
2023-02-27T10:17:56.508Z,6.57
2023-02-27T10:20:32.503Z,6.50
2023-02-27T10:23:06.922Z,6.42
2023-02-27T10:25:45.629Z,6.41
2023-02-27T10:28:22.779Z,6.42
2023-02-27T10:30:56.118Z,6.43
2023-02-27T10:33:28.526Z,6.44
2023-02-27T10:35:58.153Z,6.46
2023-02-27T10:38:41.585Z,6.48
2023-02-27T10:41:13.849Z,6.49
2023-02-27T10:43:43.291Z,6.49
2023-02-27T10:46:19.708Z,6.49
2023-02-27T10:48:48.746Z,6.49
2023-02-27T10:51:28.334Z,6.46
2023-02-27T10:54:22.166Z,6.45
2023-02-27T10:57:30.593Z,6.45
2023-02-27T11:00:07.464Z,6.44
2023-02-27T11:02:42.191Z,6.41
2023-02-27T11:05:24.666Z,6.35
2023-02-27T11:07:54.784Z,6.29
2023-02-27T11:10:27.947Z,6.21
2023-02-27T11:13:01.514Z,6.12
2023-02-27T11:15:38.101Z,6.09
2023-02-27T11:18:21.007Z,6.08
2023-02-27T11:20:51.203Z,6.10
2023-02-27T11:23:23.479Z,6.13
2023-02-27T11:26:09.155Z,6.10
2023-02-27T11:28:37.774Z,6.09
2023-02-27T11:31:21.501Z,6.13
2023-02-27T11:33:56.324Z,6.22
2023-02-27T11:36:46.640Z,6.33
2023-02-27T11:39:27.620Z,6.43
2023-02-27T11:41:59.654Z,6.53
2023-02-27T11:44:49.921Z,6.61
2023-02-27T11:47:27.848Z,6.64
2023-02-27T11:50:05.394Z,6.68
2023-02-27T11:52:45.158Z,6.74
2023-02-27T11:55:18.517Z,6.77
2023-02-27T11:57:51.816Z,6.81
2023-02-27T12:00:26.585Z,6.87
2023-02-27T12:03:06.338Z,6.94
2023-02-27T12:05:51.561Z,6.98
2023-02-27T12:08:36.290Z,7.05
2023-02-27T12:11:22.521Z,7.09
2023-02-27T12:14:05.958Z,7.14
2023-02-27T12:16:54.315Z,7.17
2023-02-27T12:19:27.092Z,7.23
2023-02-27T12:22:04.579Z,7.32
2023-02-27T12:24:42.485Z,7.43
2023-02-27T12:27:19.565Z,7.54
2023-02-27T12:29:56.544Z,7.66
2023-02-27T12:32:32.223Z,7.78
2023-02-27T12:35:26.622Z,7.86
2023-02-27T12:37:56.990Z,7.93
2023-02-27T12:40:38.908Z,7.97
2023-02-27T12:43:28.381Z,8.01
2023-02-27T12:46:06.327Z,8.01
2023-02-27T12:48:37.834Z,7.97
2023-02-27T12:51:17.034Z,7.97
2023-02-27T12:54:08.393Z,8.01
2023-02-27T12:56:51.510Z,8.05
2023-02-27T12:59:40.582Z,8.07
2023-02-27T13:02:24.726Z,8.13
2023-02-27T13:05:34.097Z,8.15
2023-02-27T13:08:12.045Z,8.23
2023-02-27T13:10:58.890Z,8.34
2023-02-27T13:13:40.484Z,8.42
2023-02-27T13:16:29.008Z,8.52
2023-02-27T13:19:15.952Z,8.57
2023-02-27T13:21:56.133Z,8.53
2023-02-27T13:24:31.459Z,8.46
2023-02-27T13:27:19.692Z,8.35
2023-02-27T13:30:13.371Z,8.23
2023-02-27T13:32:45.899Z,8.14
2023-02-27T13:35:28.373Z,8.08
2023-02-27T13:38:02.677Z,8.03
2023-02-27T13:40:42.007Z,7.99
2023-02-27T13:43:51.413Z,7.97
2023-02-27T13:46:25.707Z,7.94
2023-02-27T13:49:06.228Z,7.92
2023-02-27T13:51:41.574Z,7.97
2023-02-27T13:54:16.433Z,8.03
2023-02-27T13:56:48.355Z,8.10
2023-02-27T13:59:37.338Z,8.16
2023-02-27T14:02:13.203Z,8.14
2023-02-27T14:04:49.876Z,8.12
2023-02-27T14:07:25.815Z,8.04
2023-02-27T14:10:04.039Z,7.96
2023-02-27T14:12:45.766Z,7.86
2023-02-27T14:15:17.882Z,7.76
2023-02-27T14:17:50.997Z,7.68
2023-02-27T14:20:24.578Z,7.65
2023-02-27T14:23:15.735Z,7.63
2023-02-27T14:25:52.908Z,7.59
2023-02-27T14:28:34.471Z,7.57
2023-02-27T14:31:06.495Z,7.61
2023-02-27T14:33:45.723Z,7.67
2023-02-27T14:36:20.798Z,7.66
2023-02-27T14:38:52.355Z,7.64
2023-02-27T14:41:49.674Z,7.67
2023-02-27T14:44:24.067Z,7.77
2023-02-27T14:46:54.890Z,7.84
2023-02-27T14:49:29.988Z,7.85
2023-02-27T14:52:18.345Z,7.83
2023-02-27T14:54:48.719Z,7.81
2023-02-27T14:57:27.615Z,7.79
2023-02-27T14:59:56.778Z,7.77
2023-02-27T15:02:33.999Z,7.81
2023-02-27T15:05:02.961Z,7.77
2023-02-27T15:07:34.759Z,7.73
2023-02-27T15:10:08.659Z,7.78
2023-02-27T15:12:39.624Z,7.87
2023-02-27T15:15:10.910Z,8.17
2023-02-27T15:17:46.333Z,8.50
2023-02-27T15:20:27.760Z,8.58
2023-02-27T15:22:58.105Z,8.43
2023-02-27T15:25:38.772Z,8.24
2023-02-27T15:28:31.406Z,8.03
2023-02-27T15:31:00.443Z,7.74
2023-02-27T15:33:32.377Z,7.47
2023-02-27T15:36:01.195Z,7.19
2023-02-27T15:38:36.456Z,6.95
2023-02-27T15:41:05.815Z,6.71
2023-02-27T15:43:34.669Z,6.52
2023-02-27T15:46:03.965Z,6.34
2023-02-27T15:48:33.405Z,6.19
2023-02-27T15:51:04.530Z,6.06
2023-02-27T15:53:34.297Z,5.93
2023-02-27T15:56:09.853Z,5.80
2023-02-27T15:58:54.721Z,5.66
2023-02-27T16:01:27.246Z,5.52
2023-02-27T16:03:59.616Z,5.42
2023-02-27T16:06:32.617Z,5.32
2023-02-27T16:09:07.875Z,5.23
2023-02-27T16:11:38.160Z,5.12
2023-02-27T16:14:08.802Z,5.02
2023-02-27T16:16:39.199Z,4.94
2023-02-27T16:19:29.632Z,4.87
2023-02-27T16:22:04.945Z,4.81
2023-02-27T16:24:34.481Z,4.77
2023-02-27T16:27:03.360Z,4.73
2023-02-27T16:29:32.263Z,4.69
2023-02-27T16:32:01.230Z,4.63
2023-02-27T16:34:45.948Z,4.59
2023-02-27T16:37:35.390Z,4.56
2023-02-27T16:40:14.657Z,4.53
2023-02-27T16:42:44.234Z,4.52
2023-02-27T16:45:18.655Z,4.53
2023-02-27T16:47:49.872Z,4.55
2023-02-27T16:50:43.367Z,4.55
2023-02-27T16:53:12.037Z,4.56
2023-02-27T16:55:43.813Z,4.55
2023-02-27T16:58:16.569Z,4.55
2023-02-27T17:00:45.351Z,4.56
2023-02-27T17:03:14.803Z,4.57
2023-02-27T17:05:43.800Z,4.58
2023-02-27T17:08:13.187Z,4.58
2023-02-27T17:10:41.733Z,4.55
2023-02-27T17:13:10.355Z,4.52
2023-02-27T17:15:39.455Z,4.50
2023-02-27T17:18:09.402Z,4.48
2023-02-27T17:20:38.565Z,4.49
2023-02-27T17:23:12.512Z,4.47
2023-02-27T17:25:43.119Z,4.46
2023-02-27T17:28:12.102Z,4.45
2023-02-27T17:30:41.588Z,4.45
2023-02-27T17:33:10.328Z,4.44
2023-02-27T17:35:39.096Z,4.42
2023-02-27T17:38:07.874Z,4.40
2023-02-27T17:40:40.039Z,4.38
2023-02-27T17:43:08.729Z,4.39
2023-02-27T17:45:38.847Z,4.40
2023-02-27T17:48:07.534Z,4.38
2023-02-27T17:50:36.635Z,4.38
2023-02-27T17:53:05.419Z,4.38
2023-02-27T17:55:33.971Z,4.36
2023-02-27T17:58:03.303Z,4.35
2023-02-27T18:00:31.882Z,4.34
2023-02-27T18:03:00.573Z,4.33
2023-02-27T18:05:29.670Z,4.32
2023-02-27T18:07:58.149Z,4.31
2023-02-27T18:10:26.837Z,4.30
2023-02-27T18:12:55.608Z,4.28
2023-02-27T18:15:24.208Z,4.25
2023-02-27T18:17:52.754Z,4.23
2023-02-27T18:20:21.582Z,4.22
2023-02-27T18:22:50.266Z,4.21
2023-02-27T18:25:20.567Z,4.18
2023-02-27T18:27:49.419Z,4.14
2023-02-27T18:30:20.528Z,4.10
2023-02-27T18:32:49.724Z,4.06
2023-02-27T18:35:18.514Z,4.02
2023-02-27T18:37:46.994Z,4.00
2023-02-27T18:40:16.302Z,3.99
2023-02-27T18:42:48.774Z,3.98
2023-02-27T18:45:18.029Z,3.96
2023-02-27T18:47:47.375Z,3.95
2023-02-27T18:50:17.501Z,3.95
2023-02-27T18:52:47.718Z,3.96
2023-02-27T18:55:21.321Z,3.95
2023-02-27T18:57:54.035Z,3.95
2023-02-27T19:00:24.436Z,3.93
2023-02-27T19:02:52.962Z,3.94
2023-02-27T19:05:21.804Z,3.94
2023-02-27T19:07:50.594Z,3.94
2023-02-27T19:10:19.375Z,3.92
2023-02-27T19:12:51.610Z,3.91
2023-02-27T19:15:20.435Z,3.89
2023-02-27T19:17:49.227Z,3.87
2023-02-27T19:20:18.923Z,3.86
2023-02-27T19:22:47.726Z,3.85
2023-02-27T19:25:16.211Z,3.83
2023-02-27T19:27:47.217Z,3.81
2023-02-27T19:30:16.256Z,3.78
2023-02-27T19:32:44.823Z,3.76
2023-02-27T19:35:15.646Z,3.76
2023-02-27T19:37:48.352Z,3.75
2023-02-27T19:40:16.902Z,3.75
2023-02-27T19:42:45.821Z,3.75
2023-02-27T19:45:14.501Z,3.76
2023-02-27T19:47:44.316Z,3.76
2023-02-27T19:50:16.690Z,3.75
2023-02-27T19:52:45.282Z,3.74
2023-02-27T19:55:14.268Z,3.72
2023-02-27T19:57:43.178Z,3.71
2023-02-27T20:00:13.489Z,3.68
2023-02-27T20:02:42.444Z,3.65
2023-02-27T20:05:12.399Z,3.62
2023-02-27T20:07:42.587Z,3.60
2023-02-27T20:10:12.093Z,3.59
2023-02-27T20:12:41.217Z,3.58
2023-02-27T20:15:11.829Z,3.57
2023-02-27T20:17:42.440Z,3.55
2023-02-27T20:20:12.087Z,3.52
2023-02-27T20:22:43.835Z,3.51
2023-02-27T20:25:12.824Z,3.50
2023-02-27T20:27:41.526Z,3.47
2023-02-27T20:30:11.636Z,3.45
2023-02-27T20:32:40.928Z,3.40
2023-02-27T20:35:10.316Z,3.37
2023-02-27T20:37:39.547Z,3.33
2023-02-27T20:40:10.201Z,3.31
2023-02-27T20:42:39.078Z,3.30
2023-02-27T20:45:08.378Z,3.27
2023-02-27T20:47:37.064Z,3.25
2023-02-27T20:50:06.407Z,3.24
2023-02-27T20:52:35.049Z,3.22
2023-02-27T20:55:04.717Z,3.19
2023-02-27T20:57:33.857Z,3.17
2023-02-27T21:00:03.470Z,3.15
2023-02-27T21:02:32.354Z,3.11
2023-02-27T21:05:01.241Z,3.08
2023-02-27T21:07:29.938Z,3.03
2023-02-27T21:09:58.928Z,2.99
2023-02-27T21:12:27.517Z,2.95
2023-02-27T21:14:56.497Z,2.92
2023-02-27T21:17:26.431Z,2.90
2023-02-27T21:19:55.109Z,2.86
2023-02-27T21:22:23.587Z,2.85
2023-02-27T21:24:53.929Z,2.82
2023-02-27T21:27:23.113Z,2.80
2023-02-27T21:29:51.602Z,2.78
2023-02-27T21:32:20.399Z,2.77
2023-02-27T21:34:49.175Z,2.75
2023-02-27T21:37:18.034Z,2.75
2023-02-27T21:39:52.865Z,2.73
2023-02-27T21:42:22.399Z,2.69
2023-02-27T21:44:51.081Z,2.66
2023-02-27T21:47:21.196Z,2.63
2023-02-27T21:49:51.647Z,2.60
2023-02-27T21:52:20.647Z,2.56
2023-02-27T21:54:49.408Z,2.52
2023-02-27T21:57:18.196Z,2.50
2023-02-27T21:59:47.093Z,2.48
2023-02-27T22:02:15.903Z,2.47
2023-02-27T22:04:44.467Z,2.46
2023-02-27T22:07:13.457Z,2.44
2023-02-27T22:09:42.448Z,2.43
2023-02-27T22:12:10.929Z,2.41
2023-02-27T22:14:39.921Z,2.40
2023-02-27T22:17:08.685Z,2.39
2023-02-27T22:19:37.092Z,2.38
2023-02-27T22:22:05.976Z,2.34
2023-02-27T22:24:34.977Z,2.31
2023-02-27T22:27:04.498Z,2.27
2023-02-27T22:29:33.168Z,2.25
2023-02-27T22:32:02.267Z,2.24
2023-02-27T22:34:31.058Z,2.22
2023-02-27T22:36:59.742Z,2.19
2023-02-27T22:39:28.466Z,2.18
2023-02-27T22:41:57.316Z,2.15
2023-02-27T22:44:26.118Z,2.12
2023-02-27T22:46:56.242Z,2.11
2023-02-27T22:49:24.928Z,2.09
2023-02-27T22:51:54.326Z,2.06
2023-02-27T22:54:23.514Z,2.04
2023-02-27T22:56:53.175Z,2.03
2023-02-27T22:59:22.731Z,2.02
2023-02-27T23:01:51.960Z,2.02
2023-02-27T23:04:22.402Z,2.01
2023-02-27T23:06:52.890Z,2.01
2023-02-27T23:09:25.668Z,2.02
2023-02-27T23:11:55.375Z,2.03
2023-02-27T23:14:24.160Z,2.03
2023-02-27T23:16:52.958Z,2.04
2023-02-27T23:19:22.990Z,2.06
2023-02-27T23:21:51.450Z,2.06
2023-02-27T23:24:20.872Z,2.07
2023-02-27T23:26:51.510Z,2.07
2023-02-27T23:29:20.889Z,2.07
2023-02-27T23:31:49.931Z,2.05
2023-02-27T23:34:18.880Z,2.05
2023-02-27T23:36:47.358Z,2.05
2023-02-27T23:39:16.257Z,2.06
2023-02-27T23:41:45.240Z,2.06
2023-02-27T23:44:13.829Z,2.04
2023-02-27T23:46:42.502Z,2.03
2023-02-27T23:49:11.915Z,2.03
2023-02-27T23:51:40.587Z,2.04
2023-02-27T23:54:09.291Z,2.06
2023-02-27T23:56:37.982Z,2.06
2023-02-27T23:59:07.381Z,2.08
